Time;durP1;ratioP1;P1;durP2;ratioP2;P2;SDS_P1;SDS_P2;PMS_P1;PMS_P2;Temp;Humidity;BMP_temperature;BMP_pressure;BME280_temperature;BME280_humidity;BME280_pressure;Samples;Min_cycle;Max_cycle;Signal;HPM_P1;HPM_P2
2021/06/17 00:02:18;;;;;;;6.65;2.72;;;;;;;15.86;nan;101814.91;5045337;28;20036;-47
2021/06/17 00:04:43;;;;;;;4.05;2.50;;;;;;;15.82;nan;101815.69;5042728;28;20166;-46
2021/06/17 00:07:09;;;;;;;7.85;3.20;;;;;;;15.76;nan;101811.31;5049018;28;20040;-47
2021/06/17 00:09:34;;;;;;;4.55;2.70;;;;;;;15.70;nan;101813.97;5051208;28;20370;-48
2021/06/17 00:12:00;;;;;;;3.90;2.83;;;;;;;15.67;nan;101814.47;5043320;28;20029;-47
2021/06/17 00:14:28;;;;;;;3.35;2.80;;;;;;;15.64;nan;101820.41;5048619;28;20406;-46
2021/06/17 00:16:55;;;;;;;4.38;2.78;;;;;;;15.61;nan;101814.66;5042030;28;20479;-47
2021/06/17 00:19:21;;;;;;;6.18;3.28;;;;;;;15.60;nan;101813.84;5044975;28;20028;-47
2021/06/17 00:21:46;;;;;;;6.38;3.20;;;;;;;15.55;nan;101818.38;5044828;28;20095;-46
2021/06/17 00:24:12;;;;;;;6.72;2.92;;;;;;;15.48;nan;101817.78;5047463;28;20261;-47
2021/06/17 00:26:37;;;;;;;6.15;3.22;;;;;;;15.46;nan;101819.91;5045367;28;20099;-48
2021/06/17 00:29:02;;;;;;;5.30;2.78;;;;;;;15.39;nan;101820.91;5047743;28;20044;-47
2021/06/17 00:31:28;;;;;;;4.28;2.83;;;;;;;15.36;nan;101823.31;5052647;28;20490;-47
2021/06/17 00:33:53;;;;;;;4.15;2.80;;;;;;;15.34;nan;101820.88;5043717;28;20079;-47
2021/06/17 00:36:19;;;;;;;6.10;3.10;;;;;;;15.31;nan;101820.56;5046691;28;20021;-47
2021/06/17 00:38:44;;;;;;;7.22;3.28;;;;;;;15.27;nan;101825.66;5043355;28;20498;-48
2021/06/17 00:41:10;;;;;;;3.78;2.70;;;;;;;15.29;nan;101828.09;5047409;28;20862;-46
2021/06/17 00:43:35;;;;;;;3.67;2.60;;;;;;;15.25;nan;101827.75;5059868;28;20029;-48
2021/06/17 00:46:01;;;;;;;5.82;3.03;;;;;;;15.22;nan;101828.28;5043249;28;20043;-47
2021/06/17 00:48:26;;;;;;;3.92;2.65;;;;;;;15.18;nan;101829.03;5047800;28;20027;-47
2021/06/17 00:50:55;;;;;;;4.82;2.92;;;;;;;15.17;nan;101825.53;5041815;28;20120;-48
2021/06/17 00:53:30;;;;;;;8.07;2.75;;;;;;;15.16;nan;101823.09;5047680;28;20025;-46
2021/06/17 00:55:57;;;;;;;4.72;3.28;;;;;;;15.12;nan;101825.47;5038883;28;20399;-47
2021/06/17 00:58:23;;;;;;;5.15;3.25;;;;;;;15.11;nan;101821.97;5047663;28;20208;-47
2021/06/17 01:00:49;;;;;;;4.45;2.80;;;;;;;15.12;nan;101828.19;5046272;28;20453;-49
2021/06/17 01:03:16;;;;;;;6.10;2.90;;;;;;;15.04;nan;101824.03;5048864;28;20475;-48
2021/06/17 01:05:41;;;;;;;5.15;2.83;;;;;;;15.05;nan;101822.13;5041092;28;20033;-48
2021/06/17 01:08:13;;;;;;;7.88;3.47;;;;;;;15.00;nan;101830.19;5044561;28;20458;-47
2021/06/17 01:11:00;;;;;;;3.65;2.90;;;;;;;14.99;nan;101823.16;5041164;28;20033;-47
2021/06/17 01:13:51;;;;;;;5.22;3.00;;;;;;;15.06;nan;101823.75;5049678;28;20029;-47
2021/06/17 01:16:28;;;;;;;6.22;3.03;;;;;;;15.08;nan;101819.78;5063577;28;20087;-47
2021/06/17 01:18:59;;;;;;;6.28;2.78;;;;;;;15.07;nan;101820.81;5041157;28;20112;-47
2021/06/17 01:21:31;;;;;;;6.20;3.00;;;;;;;15.05;nan;101822.94;5046904;28;20401;-48
2021/06/17 01:24:18;;;;;;;3.80;3.00;;;;;;;15.00;nan;101819.38;5055759;28;20025;-46
2021/06/17 01:27:04;;;;;;;8.75;3.38;;;;;;;15.01;nan;101821.00;5043521;28;21125;-48
2021/06/17 01:29:31;;;;;;;3.60;2.40;;;;;;;15.00;nan;101824.78;5042308;28;20059;-49
2021/06/17 01:31:57;;;;;;;5.82;3.42;;;;;;;14.96;nan;101829.88;5044626;28;20036;-47
2021/06/17 01:34:24;;;;;;;5.35;3.05;;;;;;;14.92;nan;101822.53;5047371;28;20023;-47
2021/06/17 01:37:00;;;;;;;6.80;3.40;;;;;;;14.88;nan;101815.97;5043184;28;20025;-49
2021/06/17 01:39:28;;;;;;;4.78;3.28;;;;;;;14.91;nan;101818.22;5044786;28;20034;-46
2021/06/17 01:41:54;;;;;;;5.45;2.85;;;;;;;14.89;nan;101818.44;5044951;28;20083;-48
2021/06/17 01:44:22;;;;;;;5.90;3.13;;;;;;;14.88;nan;101810.59;5045836;28;20032;-47
2021/06/17 01:46:49;;;;;;;6.70;3.40;;;;;;;14.85;nan;101811.91;5042742;28;20115;-47
2021/06/17 01:49:17;;;;;;;5.80;3.30;;;;;;;14.85;nan;101805.69;5044368;28;20112;-47
2021/06/17 01:51:44;;;;;;;8.73;4.00;;;;;;;14.85;nan;101805.69;5041283;28;20028;-47
2021/06/17 01:54:09;;;;;;;7.47;3.63;;;;;;;14.94;nan;101796.13;5035224;28;20048;-47
2021/06/17 01:56:36;;;;;;;9.50;3.50;;;;;;;14.98;nan;101799.94;5039875;28;20024;-48
2021/06/17 01:59:04;;;;;;;5.57;4.07;;;;;;;15.08;nan;101794.63;5042228;28;20021;-46
2021/06/17 02:01:32;;;;;;;7.13;3.85;;;;;;;15.14;nan;101793.66;5043962;28;20258;-50
2021/06/17 02:04:00;;;;;;;7.00;4.15;;;;;;;15.22;nan;101790.47;5038119;28;20035;-47
2021/06/17 02:06:27;;;;;;;9.38;4.13;;;;;;;15.32;nan;101785.19;5040913;28;20025;-47
2021/06/17 02:08:56;;;;;;;10.10;3.97;;;;;;;15.39;nan;101787.69;5039039;28;20089;-47
2021/06/17 02:11:24;;;;;;;8.75;3.97;;;;;;;15.48;nan;101788.88;5045880;28;20032;-47
2021/06/17 02:13:50;;;;;;;15.15;4.40;;;;;;;15.57;nan;101791.91;5042560;28;20255;-46
2021/06/17 02:16:19;;;;;;;7.07;3.78;;;;;;;15.58;nan;101797.06;5046309;28;20029;-47
2021/06/17 02:18:47;;;;;;;7.75;4.28;;;;;;;15.61;nan;101798.47;5041901;28;20033;-47
2021/06/17 02:21:14;;;;;;;4.13;3.47;;;;;;;15.62;nan;101798.22;5045396;28;20033;-47
2021/06/17 02:23:43;;;;;;;6.93;4.38;;;;;;;15.66;nan;101790.44;5039644;28;20079;-46
2021/06/17 02:26:10;;;;;;;7.03;4.15;;;;;;;15.65;nan;101794.19;5046308;28;20834;-47
2021/06/17 02:28:44;;;;;;;4.95;4.25;;;;;;;15.59;nan;101793.31;5052204;28;20036;-48
2021/06/17 02:31:14;;;;;;;5.38;3.92;;;;;;;15.59;nan;101795.19;5052817;28;20106;-47
2021/06/17 02:33:39;;;;;;;8.10;4.03;;;;;;;15.54;nan;101790.53;5049519;28;20039;-47
2021/06/17 02:36:06;;;;;;;7.40;4.30;;;;;;;15.50;nan;101791.31;5050833;28;20115;-47
2021/06/17 02:38:39;;;;;;;5.95;3.65;;;;;;;15.47;nan;101783.72;5052823;28;20024;-46
2021/06/17 02:41:08;;;;;;;6.88;3.92;;;;;;;15.42;nan;101777.19;5047492;28;20044;-47
2021/06/17 02:43:38;;;;;;;6.47;3.90;;;;;;;15.41;nan;101783.66;5046466;28;20112;-47
2021/06/17 02:46:04;;;;;;;7.97;4.07;;;;;;;15.39;nan;101785.00;5047491;28;20029;-47
2021/06/17 02:48:31;;;;;;;7.68;4.22;;;;;;;15.34;nan;101779.53;5046056;28;20369;-46
2021/06/17 02:50:57;;;;;;;7.90;3.70;;;;;;;15.33;nan;101776.03;5049483;28;20021;-47
2021/06/17 02:53:22;;;;;;;9.25;4.55;;;;;;;15.35;nan;101775.78;5051973;28;20028;-48
2021/06/17 02:55:52;;;;;;;6.10;4.22;;;;;;;15.35;nan;101779.28;5049552;28;20028;-48
2021/06/17 02:58:36;;;;;;;6.22;3.80;;;;;;;15.37;nan;101777.16;5049920;28;20418;-48
2021/06/17 03:01:09;;;;;;;5.03;3.95;;;;;;;15.35;nan;101773.06;5046890;28;20136;-47
2021/06/17 03:03:44;;;;;;;5.15;3.80;;;;;;;15.36;nan;101778.22;5053608;28;20486;-48
2021/06/17 03:06:26;;;;;;;6.57;4.25;;;;;;;15.42;nan;101770.97;5050160;28;20056;-47
2021/06/17 03:08:58;;;;;;;8.27;4.10;;;;;;;15.43;nan;101775.31;5052033;28;20135;-47
2021/06/17 03:11:26;;;;;;;9.45;4.10;;;;;;;15.52;nan;101767.56;5044209;28;20648;-47
2021/06/17 03:13:57;;;;;;;9.25;4.22;;;;;;;15.58;nan;101755.72;5049890;28;20021;-49
2021/06/17 03:16:31;;;;;;;6.93;3.85;;;;;;;15.64;nan;101760.97;5055268;28;20099;-48
2021/06/17 03:18:59;;;;;;;6.18;4.50;;;;;;;15.69;nan;101757.50;5047068;28;20061;-47
2021/06/17 03:21:28;;;;;;;5.95;3.85;;;;;;;15.75;nan;101758.34;5048187;28;20086;-48
2021/06/17 03:23:57;;;;;;;8.25;3.70;;;;;;;15.82;nan;101754.38;5045962;28;20028;-47
2021/06/17 03:26:24;;;;;;;7.40;4.05;;;;;;;15.90;nan;101753.06;5048336;28;20068;-47
2021/06/17 03:28:51;;;;;;;8.00;3.97;;;;;;;15.98;nan;101758.81;5048086;28;20364;-46
2021/06/17 03:31:18;;;;;;;8.80;4.20;;;;;;;16.08;nan;101760.75;5048924;28;20046;-46
2021/06/17 03:33:46;;;;;;;4.97;3.42;;;;;;;16.17;nan;101747.56;5051204;28;20112;-47
2021/06/17 03:36:13;;;;;;;6.53;3.90;;;;;;;16.27;nan;101753.03;5049849;28;20029;-48
2021/06/17 03:38:41;;;;;;;7.45;3.67;;;;;;;16.32;nan;101750.34;5048024;28;20183;-49
2021/06/17 03:41:08;;;;;;;5.80;4.15;;;;;;;16.41;nan;101754.19;5045052;28;20086;-50
2021/06/17 03:43:35;;;;;;;8.60;4.65;;;;;;;16.45;nan;101752.59;5043584;28;20433;-49
2021/06/17 03:46:03;;;;;;;5.97;3.90;;;;;;;16.58;nan;101757.53;5042910;28;20607;-47
2021/06/17 03:48:29;;;;;;;7.10;4.50;;;;;;;16.72;nan;101755.19;5046048;28;20039;-48
2021/06/17 03:50:55;;;;;;;6.78;4.65;;;;;;;16.86;nan;101758.19;5042625;28;20048;-47
2021/06/17 03:53:22;;;;;;;6.38;5.20;;;;;;;16.93;nan;101756.06;5043945;28;20027;-48
2021/06/17 03:55:53;;;;;;;8.77;5.13;;;;;;;17.03;nan;101758.00;5041714;28;20112;-48
2021/06/17 03:58:22;;;;;;;6.07;4.28;;;;;;;17.18;nan;101752.63;5045857;28;20089;-47
2021/06/17 04:00:48;;;;;;;8.82;4.65;;;;;;;17.08;nan;101752.59;5043778;28;20071;-48
2021/06/17 04:03:14;;;;;;;9.07;4.40;;;;;;;17.08;nan;101758.84;5044567;28;20040;-47
2021/06/17 04:05:39;;;;;;;5.78;4.32;;;;;;;17.02;nan;101764.47;5044775;28;20051;-47
2021/06/17 04:08:09;;;;;;;7.53;4.45;;;;;;;17.00;nan;101761.22;5051888;28;21745;-48
2021/06/17 04:10:35;;;;;;;6.78;4.47;;;;;;;17.04;nan;101763.13;5038374;28;20270;-48
2021/06/17 04:13:02;;;;;;;13.10;5.65;;;;;;;17.10;nan;101767.50;5045379;28;20114;-50
2021/06/17 04:15:29;;;;;;;8.35;5.15;;;;;;;17.19;nan;101771.31;5044158;28;20021;-47
2021/06/17 04:17:59;;;;;;;8.65;4.95;;;;;;;17.27;nan;101761.03;5047689;28;20528;-47
2021/06/17 04:20:31;;;;;;;11.10;6.03;;;;;;;17.36;nan;101771.06;5050886;28;20055;-48
2021/06/17 04:22:59;;;;;;;6.68;5.50;;;;;;;17.41;nan;101771.06;5044216;28;20127;-47
2021/06/17 04:25:25;;;;;;;10.40;5.68;;;;;;;17.49;nan;101765.13;5041517;28;20180;-47
2021/06/17 04:27:56;;;;;;;8.07;5.55;;;;;;;17.66;nan;101764.88;5041304;28;20025;-47
2021/06/17 04:30:25;;;;;;;10.45;5.53;;;;;;;17.89;nan;101766.25;5044722;28;20028;-48
2021/06/17 04:32:51;;;;;;;11.85;5.40;;;;;;;18.09;nan;101765.41;5042420;28;20017;-47
2021/06/17 04:35:20;;;;;;;10.43;5.30;;;;;;;18.19;nan;101767.31;5045903;28;20495;-48
2021/06/17 04:37:45;;;;;;;11.27;5.72;;;;;;;18.23;nan;101766.47;5050662;28;20061;-46
2021/06/17 04:40:13;;;;;;;11.02;6.20;;;;;;;18.29;nan;101770.78;5047506;28;20040;-47
2021/06/17 04:42:39;;;;;;;7.88;5.88;;;;;;;18.36;nan;101767.81;5050266;28;20036;-48
2021/06/17 04:45:05;;;;;;;8.88;5.85;;;;;;;18.47;nan;101777.53;5044687;28;20503;-47
2021/06/17 04:47:31;;;;;;;11.48;5.70;;;;;;;18.53;nan;101767.50;5053071;28;20032;-46
2021/06/17 04:49:57;;;;;;;10.20;6.32;;;;;;;18.61;nan;101772.34;5043871;28;20044;-46
2021/06/17 04:52:39;;;;;;;9.30;5.47;;;;;;;18.64;nan;101775.34;5044056;28;20116;-48
2021/06/17 04:55:05;;;;;;;12.75;6.20;;;;;;;18.74;nan;101779.94;5039080;28;20094;-47
2021/06/17 04:57:31;;;;;;;12.57;5.82;;;;;;;18.80;nan;101773.38;5044736;28;20040;-47
2021/06/17 04:59:56;;;;;;;9.52;6.05;;;;;;;18.85;nan;101767.94;5042685;28;20374;-47
2021/06/17 05:02:22;;;;;;;9.95;6.55;;;;;;;18.95;nan;101765.16;5045147;28;20063;-48
2021/06/17 05:04:47;;;;;;;8.40;6.22;;;;;;;18.99;nan;101768.13;5046231;28;20118;-46
2021/06/17 05:12:29;;;;;;;10.67;6.73;;;;;;;19.37;nan;101771.97;5050295;28;20444;-46
2021/06/17 05:14:55;;;;;;;12.02;6.28;;;;;;;19.71;nan;101776.66;5034393;28;20279;-48
2021/06/17 05:17:20;;;;;;;15.45;6.82;;;;;;;19.92;nan;101775.38;5036315;28;20114;-47
2021/06/17 05:19:46;;;;;;;14.23;6.68;;;;;;;19.98;nan;101776.97;5037197;28;20048;-48
2021/06/17 05:22:12;;;;;;;11.35;6.18;;;;;;;20.01;nan;101762.81;5037132;28;20082;-47
2021/06/17 05:24:38;;;;;;;14.38;6.75;;;;;;;20.04;nan;101783.19;5032677;28;20017;-47
2021/06/17 05:27:05;;;;;;;22.05;7.15;;;;;;;20.09;nan;101775.78;5039359;28;20027;-47
2021/06/17 05:29:31;;;;;;;9.10;6.10;;;;;;;20.34;nan;101779.34;5039941;28;20404;-47
2021/06/17 05:31:56;;;;;;;10.27;5.60;;;;;;;20.64;nan;101779.00;5040897;28;20021;-48
2021/06/17 05:34:22;;;;;;;11.35;6.32;;;;;;;20.94;nan;101779.75;5043140;28;20270;-48
2021/06/17 05:36:48;;;;;;;10.13;6.07;;;;;;;21.24;nan;101782.09;5043906;28;20116;-48
2021/06/17 05:39:13;;;;;;;12.55;6.85;;;;;;;21.27;nan;101786.13;5041021;28;20025;-48
2021/06/17 05:41:39;;;;;;;9.68;6.25;;;;;;;21.26;nan;101784.53;5057239;28;20120;-47
2021/06/17 05:44:05;;;;;;;14.32;5.78;;;;;;;21.48;nan;101778.47;5043708;28;20029;-46
2021/06/17 05:46:32;;;;;;;9.45;6.25;;;;;;;21.71;nan;101775.63;5041568;28;20106;-47
2021/06/17 05:48:58;;;;;;;12.65;6.45;;;;;;;21.90;nan;101774.75;5042808;28;20550;-47
2021/06/17 05:51:23;;;;;;;10.70;6.72;;;;;;;22.02;nan;101781.38;5043331;28;20123;-47
2021/06/17 05:53:49;;;;;;;13.32;6.70;;;;;;;22.19;nan;101769.09;5042456;28;20059;-47
2021/06/17 05:56:14;;;;;;;15.93;7.00;;;;;;;22.36;nan;101777.50;5042022;28;20522;-47
2021/06/17 05:58:40;;;;;;;8.82;6.85;;;;;;;22.47;nan;101776.22;5041402;28;20032;-48
2021/06/17 06:01:05;;;;;;;10.00;6.60;;;;;;;22.47;nan;101772.66;5040155;28;20402;-47
2021/06/17 06:03:33;;;;;;;9.38;6.32;;;;;;;22.53;nan;101771.44;5033661;28;20033;-48
2021/06/17 06:05:59;;;;;;;10.55;5.70;;;;;;;22.58;nan;101772.16;5031034;28;20024;-48
2021/06/17 06:08:24;;;;;;;12.75;6.38;;;;;;;22.76;nan;101770.41;5036526;28;20376;-48
2021/06/17 06:10:50;;;;;;;9.32;6.22;;;;;;;23.03;nan;101775.06;5037582;28;20044;-48
2021/06/17 06:13:16;;;;;;;10.98;6.40;;;;;;;23.19;nan;101776.34;5053884;28;20025;-48
2021/06/17 06:15:41;;;;;;;8.27;5.47;;;;;;;23.39;nan;101780.53;5045725;28;20021;-47
2021/06/17 06:18:12;;;;;;;8.57;6.18;;;;;;;23.39;nan;101775.06;5047961;28;20032;-48
2021/06/17 06:20:40;;;;;;;14.25;7.13;;;;;;;23.61;nan;101779.75;5046066;28;20052;-47
2021/06/17 06:23:06;;;;;;;9.90;6.63;;;;;;;23.68;nan;101776.56;5047892;28;20124;-48
2021/06/17 06:25:33;;;;;;;13.45;5.78;;;;;;;23.76;nan;101768.44;5051718;28;20039;-47
2021/06/17 06:27:58;;;;;;;11.00;6.15;;;;;;;23.86;nan;101777.50;5036723;28;20067;-47
2021/06/17 06:30:24;;;;;;;10.13;6.05;;;;;;;23.99;nan;101776.63;5048178;28;20028;-48
2021/06/17 06:32:50;;;;;;;9.38;6.80;;;;;;;24.09;nan;101777.16;5055814;28;20041;-47
2021/06/17 06:35:15;;;;;;;9.50;6.00;;;;;;;24.22;nan;101772.69;5050776;28;20145;-48
2021/06/17 06:37:48;;;;;;;9.07;6.72;;;;;;;24.44;nan;101771.06;5048533;28;20052;-46
2021/06/17 06:40:15;;;;;;;7.63;5.53;;;;;;;24.54;nan;101771.56;5043548;28;20059;-47
2021/06/17 06:42:40;;;;;;;11.90;6.70;;;;;;;24.67;nan;101764.38;5052028;28;20028;-46
2021/06/17 06:45:06;;;;;;;9.18;6.07;;;;;;;24.83;nan;101762.78;5040984;28;20025;-47
2021/06/17 06:47:32;;;;;;;14.45;7.18;;;;;;;24.99;nan;101758.50;5043625;28;20033;-48
2021/06/17 06:49:57;;;;;;;12.43;6.57;;;;;;;25.11;nan;101757.03;5042116;28;20025;-47
2021/06/17 06:52:23;;;;;;;10.88;6.80;;;;;;;25.25;nan;101757.69;5043943;28;20048;-47
2021/06/17 06:54:48;;;;;;;9.57;6.38;;;;;;;25.29;nan;101762.19;5043281;28;20241;-48
2021/06/17 06:57:14;;;;;;;8.80;6.45;;;;;;;25.44;nan;101766.41;5044360;28;20032;-47
2021/06/17 06:59:40;;;;;;;7.25;5.97;;;;;;;25.49;nan;101762.66;5043719;28;20037;-49
2021/06/17 07:02:05;;;;;;;11.13;6.40;;;;;;;25.59;nan;101763.16;5041565;28;20052;-47
2021/06/17 07:04:33;;;;;;;15.85;6.95;;;;;;;25.84;nan;101768.94;5043925;28;20037;-48
2021/06/17 07:06:59;;;;;;;9.75;6.63;;;;;;;25.96;nan;101763.59;5041544;28;20148;-48
2021/06/17 07:09:24;;;;;;;9.25;6.65;;;;;;;26.05;nan;101769.88;5044548;28;20186;-47
2021/06/17 07:11:50;;;;;;;8.48;6.88;;;;;;;26.12;nan;101761.91;5044188;28;20589;-47
2021/06/17 07:14:16;;;;;;;8.27;6.32;;;;;;;26.16;nan;101764.81;5047285;28;20279;-47
2021/06/17 07:16:42;;;;;;;9.52;6.88;;;;;;;26.24;nan;101758.50;5044794;28;20392;-47
2021/06/17 07:19:07;;;;;;;11.02;6.75;;;;;;;26.31;nan;101760.72;5043992;28;20063;-50
2021/06/17 07:21:33;;;;;;;8.68;6.25;;;;;;;26.44;nan;101762.47;5047365;28;20056;-47
2021/06/17 07:23:59;;;;;;;8.25;6.53;;;;;;;26.55;nan;101755.44;5046691;28;20029;-47
2021/06/17 07:26:27;;;;;;;10.60;6.63;;;;;;;26.71;nan;101764.72;5047459;28;20036;-48
2021/06/17 07:28:54;;;;;;;7.93;6.22;;;;;;;26.78;nan;101767.78;5046647;28;20116;-49
2021/06/17 07:31:20;;;;;;;9.38;6.70;;;;;;;26.90;nan;101757.97;5043272;28;20086;-48
2021/06/17 07:33:46;;;;;;;10.68;6.55;;;;;;;27.01;nan;101764.72;5046324;28;20372;-47
2021/06/17 07:36:15;;;;;;;8.40;6.05;;;;;;;27.17;nan;101764.94;5046394;28;20035;-48
2021/06/17 07:38:40;;;;;;;7.10;5.90;;;;;;;27.34;nan;101764.78;5047047;28;20398;-48
2021/06/17 07:41:06;;;;;;;12.93;6.75;;;;;;;27.51;nan;101766.59;5046370;28;20124;-48
2021/06/17 07:43:32;;;;;;;8.65;6.75;;;;;;;27.68;nan;101769.19;5047061;28;20074;-49
2021/06/17 07:45:59;;;;;;;11.48;7.03;;;;;;;27.85;nan;101777.28;5043957;28;20146;-48
2021/06/17 07:48:24;;;;;;;10.35;7.40;;;;;;;27.98;nan;101776.16;5046935;28;20025;-48
2021/06/17 07:50:50;;;;;;;12.32;6.75;;;;;;;28.13;nan;101774.69;5047289;28;20037;-47
2021/06/17 07:53:15;;;;;;;10.60;7.05;;;;;;;28.20;nan;101771.38;5045742;28;20075;-48
2021/06/17 07:55:41;;;;;;;7.95;6.30;;;;;;;28.38;nan;101772.78;5046139;28;20025;-48
2021/06/17 07:58:06;;;;;;;7.53;6.35;;;;;;;28.57;nan;101767.50;5045942;28;20024;-50
2021/06/17 08:00:32;;;;;;;8.40;6.63;;;;;;;28.74;nan;101768.41;5042636;28;20032;-48
2021/06/17 08:02:58;;;;;;;10.32;7.03;;;;;;;28.80;nan;101758.75;5044757;28;20031;-48
2021/06/17 08:05:25;;;;;;;11.07;7.03;;;;;;;28.88;nan;101757.81;5045846;28;20033;-49
2021/06/17 08:07:50;;;;;;;8.63;6.07;;;;;;;28.94;nan;101764.72;5045474;28;20101;-48
2021/06/17 08:10:16;;;;;;;8.75;6.40;;;;;;;29.14;nan;101758.22;5046062;28;20032;-48
2021/06/17 08:12:42;;;;;;;10.60;6.28;;;;;;;29.26;nan;101757.34;5057285;28;20136;-49
2021/06/17 08:15:08;;;;;;;10.05;6.32;;;;;;;29.42;nan;101762.94;5044948;28;20047;-47
2021/06/17 08:17:34;;;;;;;7.93;5.75;;;;;;;29.38;nan;101748.25;5043790;28;20035;-48
2021/06/17 08:19:59;;;;;;;7.13;5.82;;;;;;;29.23;nan;101754.50;5046183;28;20020;-47
2021/06/17 08:22:27;;;;;;;8.98;6.13;;;;;;;29.42;nan;101752.69;5044202;28;20021;-49
2021/06/17 08:24:53;;;;;;;7.50;5.65;;;;;;;29.55;nan;101758.19;5045054;28;20052;-47
2021/06/17 08:27:19;;;;;;;7.28;5.53;;;;;;;29.38;nan;101751.78;5046258;28;20028;-48
2021/06/17 08:29:45;;;;;;;8.63;5.50;;;;;;;29.44;nan;101744.88;5044369;28;20033;-47
2021/06/17 08:32:11;;;;;;;8.68;5.25;;;;;;;29.71;nan;101743.25;5042159;28;20041;-48
2021/06/17 08:34:36;;;;;;;6.07;5.47;;;;;;;29.72;nan;101750.41;5038080;28;20028;-48
2021/06/17 08:37:05;;;;;;;7.00;5.50;;;;;;;29.72;nan;101744.88;5039827;28;20021;-47
2021/06/17 08:39:31;;;;;;;6.63;5.30;;;;;;;29.79;nan;101747.00;5040195;28;20033;-48
2021/06/17 08:41:57;;;;;;;6.22;5.32;;;;;;;30.01;nan;101751.16;5042237;28;20032;-48
2021/06/17 08:44:23;;;;;;;8.60;5.30;;;;;;;30.07;nan;101750.53;5043842;28;20025;-47
2021/06/17 08:46:51;;;;;;;8.23;5.85;;;;;;;30.26;nan;101744.28;5040829;28;20537;-48
2021/06/17 08:49:18;;;;;;;6.38;5.25;;;;;;;30.32;nan;101745.59;5041802;28;20605;-48
2021/06/17 08:51:47;;;;;;;7.78;5.40;;;;;;;30.16;nan;101752.31;5040427;28;20021;-47
2021/06/17 08:54:19;;;;;;;9.98;5.60;;;;;;;30.04;nan;101758.75;5039456;28;20148;-47
2021/06/17 08:56:46;;;;;;;6.35;4.57;;;;;;;29.70;nan;101752.72;5039899;28;20039;-47
2021/06/17 08:59:13;;;;;;;5.20;4.68;;;;;;;30.01;nan;101756.66;5040496;28;20029;-48
2021/06/17 09:01:39;;;;;;;6.90;5.05;;;;;;;30.23;nan;101761.59;5041064;28;20036;-48
2021/06/17 09:04:19;;;;;;;6.65;5.28;;;;;;;30.32;nan;101758.63;5039544;28;20021;-48
2021/06/17 09:07:06;;;;;;;8.38;5.50;;;;;;;30.63;nan;101750.31;5041422;28;20513;-48
2021/06/17 09:09:58;;;;;;;7.57;5.38;;;;;;;30.41;nan;101758.47;5043562;28;20120;-47
2021/06/17 09:12:23;;;;;;;6.68;5.03;;;;;;;30.30;nan;101766.47;5039745;28;20033;-48
2021/06/17 09:14:55;;;;;;;7.18;5.40;;;;;;;30.63;nan;101755.84;5042783;28;20107;-47
2021/06/17 09:17:20;;;;;;;7.25;4.63;;;;;;;30.50;nan;101764.59;5043657;28;20059;-47
2021/06/17 09:19:48;;;;;;;6.05;4.68;;;;;;;30.01;nan;101759.44;5043621;28;20032;-48
2021/06/17 09:22:16;;;;;;;5.57;4.65;;;;;;;30.12;nan;101755.00;5041773;28;20040;-47
2021/06/17 09:24:45;;;;;;;6.57;4.88;;;;;;;30.42;nan;101760.06;5041798;28;20521;-47
2021/06/17 09:27:21;;;;;;;6.18;4.47;;;;;;;30.23;nan;101766.31;5044260;28;20036;-47
2021/06/17 09:29:48;;;;;;;5.30;4.78;;;;;;;30.42;nan;101768.34;5041769;28;20029;-48
2021/06/17 09:32:26;;;;;;;6.15;5.10;;;;;;;30.74;nan;101769.13;5043578;28;20044;-48
2021/06/17 09:34:52;;;;;;;5.63;5.00;;;;;;;31.03;nan;101765.00;5040473;28;20032;-48
2021/06/17 09:37:32;;;;;;;5.43;4.55;;;;;;;31.15;nan;101760.16;5043992;28;20039;-48
2021/06/17 09:39:58;;;;;;;8.65;4.72;;;;;;;31.37;nan;101755.06;5041251;28;20059;-48
2021/06/17 09:42:31;;;;;;;8.45;4.78;;;;;;;31.39;nan;101756.28;5044562;28;20031;-49
2021/06/17 09:44:59;;;;;;;7.75;4.97;;;;;;;31.67;nan;101746.94;5042733;28;20029;-48
2021/06/17 09:47:31;;;;;;;11.20;4.82;;;;;;;31.80;nan;101751.16;5043397;28;20063;-48
2021/06/17 09:50:00;;;;;;;7.05;5.38;;;;;;;31.98;nan;101757.81;5043827;28;20082;-47
2021/06/17 09:52:38;;;;;;;5.85;5.22;;;;;;;32.06;nan;101753.19;5042893;28;20029;-48
2021/06/17 09:55:04;;;;;;;7.13;5.32;;;;;;;32.23;nan;101746.34;5039912;28;20544;-48
2021/06/17 09:57:34;;;;;;;7.15;5.20;;;;;;;32.36;nan;101745.00;5044623;28;20040;-48
2021/06/17 10:00:09;;;;;;;6.80;5.05;;;;;;;32.42;nan;101749.03;5042776;28;20052;-49
2021/06/17 10:02:37;;;;;;;7.38;4.88;;;;;;;32.13;nan;101748.53;5044140;28;20035;-47
2021/06/17 10:05:14;;;;;;;6.25;5.53;;;;;;;32.38;nan;101748.19;5042531;28;20051;-47
2021/06/17 10:07:41;;;;;;;7.63;5.88;;;;;;;32.60;nan;101740.97;5041704;28;20040;-47
2021/06/17 10:10:08;;;;;;;8.27;5.75;;;;;;;32.79;nan;101740.06;5041079;28;20490;-47
2021/06/17 10:12:34;;;;;;;8.30;5.82;;;;;;;32.93;nan;101734.72;5043859;28;20032;-48
2021/06/17 10:15:00;;;;;;;9.20;6.78;;;;;;;33.08;nan;101742.06;5041890;28;20024;-49
2021/06/17 10:17:27;;;;;;;7.07;6.38;;;;;;;33.10;nan;101727.78;5043115;28;20029;-47
2021/06/17 10:19:56;;;;;;;10.48;8.35;;;;;;;33.08;nan;101725.41;5043037;28;20037;-48
2021/06/17 10:22:25;;;;;;;35.85;9.70;;;;;;;33.16;nan;101720.72;5041015;28;20200;-49
2021/06/17 10:24:51;;;;;;;17.27;8.15;;;;;;;33.21;nan;101718.38;5034397;28;21677;-49
2021/06/17 10:27:18;;;;;;;9.00;7.05;;;;;;;33.41;nan;101719.06;5038607;28;20064;-48
2021/06/17 10:29:48;;;;;;;8.18;5.97;;;;;;;33.06;nan;101730.53;5036120;28;20101;-48
2021/06/17 10:32:17;;;;;;;7.28;5.63;;;;;;;33.12;nan;101723.44;5032583;28;20169;-48
2021/06/17 10:34:53;;;;;;;6.00;5.45;;;;;;;33.46;nan;101723.47;5038348;28;20025;-48
2021/06/17 10:37:33;;;;;;;10.50;5.43;;;;;;;33.58;nan;101715.66;5034784;28;20037;-49
2021/06/17 10:40:08;;;;;;;6.00;5.40;;;;;;;33.84;nan;101717.50;5036441;28;20175;-48
2021/06/17 10:42:39;;;;;;;5.88;4.90;;;;;;;33.63;nan;101717.28;5039052;28;20039;-47
2021/06/17 10:45:45;;;;;;;5.28;4.68;;;;;;;33.69;nan;101718.53;5034934;28;20032;-49
2021/06/17 10:48:24;;;;;;;6.47;4.80;;;;;;;33.79;nan;101709.50;5041713;28;20151;-48
2021/06/17 10:51:08;;;;;;;7.13;5.22;;;;;;;33.47;nan;101709.19;5041324;28;20025;-47
2021/06/17 10:53:43;;;;;;;5.40;4.88;;;;;;;33.55;nan;101715.59;5040140;28;20547;-47
2021/06/17 10:56:19;;;;;;;6.07;5.05;;;;;;;33.71;nan;101705.03;5040808;28;20387;-48
2021/06/17 10:58:44;;;;;;;5.82;4.65;;;;;;;33.97;nan;101697.75;5040533;28;20028;-48
2021/06/17 11:01:30;;;;;;;5.43;4.90;;;;;;;33.61;nan;101698.22;5032848;28;20025;-48
2021/06/17 11:04:02;;;;;;;12.38;5.18;;;;;;;33.65;nan;101712.13;5040914;28;20098;-48
2021/06/17 11:06:50;;;;;;;7.60;4.93;;;;;;;33.85;nan;101709.97;5033646;28;20758;-47
2021/06/17 11:09:34;;;;;;;6.00;5.00;;;;;;;34.17;nan;101708.22;5037230;28;20371;-48
2021/06/17 11:12:00;;;;;;;;;;;;;;;34.34;nan;101700.38;5037468;28;20390;-47
2021/06/17 11:14:26;;;;;;;8.07;5.20;;;;;;;34.42;nan;101710.41;5026131;28;20204;-47
2021/06/17 11:16:55;;;;;;;6.78;5.22;;;;;;;33.58;nan;101703.75;5019808;28;20034;-47
2021/06/17 11:19:22;;;;;;;7.47;4.75;;;;;;;33.06;nan;101700.00;5031965;28;20517;-49
2021/06/17 11:21:49;;;;;;;6.95;4.97;;;;;;;32.71;nan;101701.13;5036650;28;20417;-47
2021/06/17 11:24:23;;;;;;;5.28;4.70;;;;;;;33.12;nan;101697.66;5044256;28;20040;-48
2021/06/17 11:26:51;;;;;;;5.95;4.32;;;;;;;33.56;nan;101695.75;5038021;28;20028;-47
2021/06/17 11:29:19;;;;;;;6.35;4.60;;;;;;;33.58;nan;101689.84;5042622;28;20025;-47
2021/06/17 11:31:49;;;;;;;4.93;4.10;;;;;;;32.87;nan;101700.16;5042831;28;20032;-48
2021/06/17 11:34:41;;;;;;;5.63;4.60;;;;;;;33.16;nan;101690.16;5041592;28;20457;-48
2021/06/17 11:37:15;;;;;;;8.65;4.90;;;;;;;33.61;nan;101684.31;5042877;28;20039;-48
2021/06/17 11:39:41;;;;;;;5.40;4.40;;;;;;;33.82;nan;101683.69;5041930;28;20067;-48
2021/06/17 11:42:14;;;;;;;7.03;4.22;;;;;;;34.10;nan;101677.56;5040085;28;20133;-49
2021/06/17 11:44:40;;;;;;;4.78;4.07;;;;;;;33.96;nan;101685.03;5037855;28;20478;-47
2021/06/17 11:47:08;;;;;;;4.93;4.53;;;;;;;33.27;nan;101677.22;5039786;28;20032;-48
2021/06/17 11:49:43;;;;;;;6.03;4.47;;;;;;;33.69;nan;101685.16;5039548;28;20052;-48
2021/06/17 11:52:19;;;;;;;5.95;4.38;;;;;;;33.99;nan;101679.50;5042859;28;20025;-48